Kirkland, Texas
Current Conditions -  °F | °C
As of 4:53 AM on Friday 31 Oct 2014 (Local Time) from KCDS Reporting Station
Clear Clear  
Wind Chill: 43°   Ceiling: Unl
Heat Index: 47°   Visibility: 10mi
Dew Point: 32°   Wind: 9mph
Humidity: 56%   Direction: 10°N
Pressure: 30.35"   Gusts: NA
Location:  34.38°N, 100.06°W
Report Text: KCDS 310953Z AUTO 01008KT 10SM CLR 08/00 A3035 RMK AO2 SLP264 T00830000
Loading
Personal Weather Stations






























Interactive Weather Map
Tropical Storm Tracking
New forecast layout! Learn more

10-Day Weather Forecast

Advertisements
Track Severe Weather on mobile